Time;durP1;ratioP1;P1;durP2;ratioP2;P2;SDS_P1;SDS_P2;PMS_P1;PMS_P2;Temp;Humidity;BMP_temperature;BMP_pressure;BME280_temperature;BME280_humidity;BME280_pressure;Samples;Min_cycle;Max_cycle;Signal;HPM_P1;HPM_P2
2022/08/02 00:00:09;;;;;;;0.82;0.50;;;20.40;67.50;;;;;;5060467;28;20132;-60
2022/08/02 00:02:35;;;;;;;0.47;0.47;;;20.40;67.60;;;;;;5061726;28;20096;-59
2022/08/02 00:05:01;;;;;;;1.00;0.40;;;20.40;67.50;;;;;;5029040;28;20049;-59
2022/08/02 00:07:26;;;;;;;1.27;0.40;;;20.30;67.40;;;;;;5040318;28;20181;-59
2022/08/02 00:09:52;;;;;;;0.52;0.50;;;20.30;67.40;;;;;;5028598;28;20041;-59
2022/08/02 00:12:18;;;;;;;0.98;0.50;;;20.30;67.60;;;;;;5064143;28;20021;-58
2022/08/02 00:14:43;;;;;;;0.60;0.50;;;20.20;67.80;;;;;;5046501;28;20033;-59
2022/08/02 00:17:09;;;;;;;1.15;0.50;;;20.20;68.10;;;;;;5055574;28;20060;-60
2022/08/02 00:19:35;;;;;;;0.98;0.65;;;20.10;68.20;;;;;;5035660;28;20052;-59
2022/08/02 00:22:00;;;;;;;1.10;0.60;;;20.10;68.40;;;;;;5029305;28;20084;-59
2022/08/02 00:24:26;;;;;;;4.53;0.60;;;20.10;68.40;;;;;;5047662;28;20025;-61
2022/08/02 00:26:52;;;;;;;0.80;0.50;;;20.10;68.50;;;;;;5044318;28;20055;-59
2022/08/02 00:29:17;;;;;;;4.55;0.70;;;20.10;68.20;;;;;;5049367;28;20064;-59
2022/08/02 00:31:43;;;;;;;5.68;0.57;;;20.00;68.20;;;;;;5048640;28;20033;-59
2022/08/02 00:34:08;;;;;;;3.97;1.27;;;20.00;68.20;;;;;;5031945;28;20052;-60
2022/08/02 00:36:34;;;;;;;1.40;1.23;;;20.00;68.40;;;;;;5043927;28;20042;-58
2022/08/02 00:39:00;;;;;;;0.93;0.57;;;20.00;68.60;;;;;;5049728;28;20564;-58
2022/08/02 00:41:25;;;;;;;1.20;0.50;;;19.90;68.60;;;;;;5040386;28;20037;-58
2022/08/02 00:43:51;;;;;;;1.17;0.73;;;19.90;68.70;;;;;;5051860;28;20075;-59
2022/08/02 00:46:18;;;;;;;1.80;1.00;;;19.90;68.70;;;;;;5039684;28;20025;-60
2022/08/02 00:48:45;;;;;;;1.08;0.55;;;19.80;68.80;;;;;;5045113;28;20401;-60
2022/08/02 00:51:11;;;;;;;0.73;0.50;;;19.90;68.80;;;;;;5052425;28;20036;-59
2022/08/02 00:53:38;;;;;;;1.85;0.65;;;19.80;68.80;;;;;;5042195;28;20036;-59
2022/08/02 00:56:03;;;;;;;1.00;0.50;;;19.80;68.90;;;;;;5051734;28;20025;-60
2022/08/02 00:58:29;;;;;;;0.50;0.50;;;19.80;68.90;;;;;;5043767;28;20026;-58
2022/08/02 01:00:56;;;;;;;2.95;0.70;;;19.80;69.10;;;;;;5040080;28;20127;-59
2022/08/02 01:03:23;;;;;;;1.08;0.60;;;19.70;69.00;;;;;;5029555;28;20053;-60
2022/08/02 01:05:49;;;;;;;0.73;0.60;;;19.70;69.00;;;;;;5045395;28;20050;-59
2022/08/02 01:08:15;;;;;;;0.43;0.40;;;19.70;69.20;;;;;;5031479;28;20056;-58
2022/08/02 01:10:41;;;;;;;1.05;0.50;;;19.70;69.20;;;;;;5032059;28;20070;-58
2022/08/02 01:13:06;;;;;;;2.13;0.60;;;19.70;69.20;;;;;;5053987;28;20482;-59
2022/08/02 01:15:36;;;;;;;1.27;0.70;;;19.60;69.30;;;;;;5050525;28;20396;-59
2022/08/02 01:18:20;;;;;;;3.60;0.80;;;19.60;69.50;;;;;;5031472;28;20029;-60
2022/08/02 01:20:58;;;;;;;1.45;0.80;;;19.60;70.00;;;;;;5037220;28;20063;-58
2022/08/02 01:23:36;;;;;;;1.63;0.68;;;19.50;69.90;;;;;;5056686;28;20056;-59
2022/08/02 01:26:38;;;;;;;0.88;0.60;;;19.50;69.30;;;;;;4929174;28;20102;-60
2022/08/02 01:29:26;;;;;;;1.27;0.60;;;19.50;70.00;;;;;;5044712;28;20056;-59
2022/08/02 01:31:56;;;;;;;0.60;0.60;;;19.50;70.00;;;;;;5034941;28;20090;-60
2022/08/02 01:34:31;;;;;;;0.60;0.60;;;19.40;69.20;;;;;;5037208;28;20030;-58
2022/08/02 01:37:23;;;;;;;0.57;0.57;;;19.40;69.40;;;;;;5044445;28;20025;-60
2022/08/02 01:39:58;;;;;;;2.78;0.68;;;19.40;70.30;;;;;;5035970;28;20029;-60
2022/08/02 01:42:26;;;;;;;0.70;0.57;;;19.30;70.20;;;;;;5039606;28;20065;-60
2022/08/02 01:44:53;;;;;;;3.05;0.60;;;19.30;69.80;;;;;;5035491;28;20026;-60
2022/08/02 01:47:26;;;;;;;1.35;0.60;;;19.30;70.00;;;;;;5043161;28;20033;-58
2022/08/02 01:49:56;;;;;;;1.42;0.75;;;19.20;70.70;;;;;;5024579;28;20041;-58
2022/08/02 01:52:25;;;;;;;2.08;0.80;;;19.20;70.40;;;;;;5041474;28;20077;-59
2022/08/02 01:54:59;;;;;;;1.02;0.80;;;19.20;70.20;;;;;;5043632;28;20621;-59
2022/08/02 01:57:26;;;;;;;0.73;0.70;;;19.20;70.70;;;;;;5041698;28;20034;-59
2022/08/02 01:59:56;;;;;;;1.10;0.63;;;19.20;70.10;;;;;;5039040;28;20076;-59
2022/08/02 02:02:23;;;;;;;1.50;0.68;;;19.20;70.40;;;;;;5040851;28;20025;-60
2022/08/02 02:04:50;;;;;;;0.60;0.60;;;19.20;70.20;;;;;;5044521;28;20096;-59
2022/08/02 02:07:19;;;;;;;2.15;0.70;;;19.20;70.00;;;;;;5052730;28;20025;-60
2022/08/02 02:09:46;;;;;;;2.15;0.70;;;19.10;70.00;;;;;;5042565;28;20053;-59
2022/08/02 02:12:12;;;;;;;1.15;0.60;;;19.10;70.60;;;;;;5042926;28;20034;-59
2022/08/02 02:14:39;;;;;;;4.78;0.80;;;19.10;69.80;;;;;;5039969;28;20056;-59
2022/08/02 02:17:06;;;;;;;0.63;0.63;;;19.00;69.80;;;;;;5031886;28;20033;-60
2022/08/02 02:19:34;;;;;;;3.83;0.95;;;19.00;70.10;;;;;;5043594;28;20093;-60
2022/08/02 02:22:00;;;;;;;1.88;0.63;;;19.00;70.10;;;;;;5047528;28;20036;-59
2022/08/02 02:24:26;;;;;;;0.77;0.77;;;19.00;70.10;;;;;;5040626;28;20029;-59
2022/08/02 02:26:52;;;;;;;1.10;0.60;;;19.00;70.30;;;;;;5049511;28;20484;-58
2022/08/02 02:29:22;;;;;;;1.45;0.70;;;19.00;70.50;;;;;;5051103;28;20135;-59
2022/08/02 02:31:51;;;;;;;1.83;0.80;;;19.00;70.70;;;;;;5040569;28;20091;-59
2022/08/02 02:34:27;;;;;;;1.15;0.60;;;19.00;70.50;;;;;;5033561;28;20025;-60
2022/08/02 02:36:55;;;;;;;0.95;0.70;;;18.90;70.60;;;;;;5042721;28;20026;-58
2022/08/02 02:39:22;;;;;;;14.57;0.80;;;18.90;70.10;;;;;;5036571;28;20038;-59
2022/08/02 02:41:50;;;;;;;0.70;0.57;;;18.90;70.20;;;;;;5038184;28;20061;-58
2022/08/02 02:44:19;;;;;;;3.33;0.70;;;18.80;70.20;;;;;;5047481;28;20037;-59
2022/08/02 02:46:48;;;;;;;0.85;0.70;;;18.80;70.50;;;;;;5048124;28;20096;-59
2022/08/02 02:49:15;;;;;;;2.70;1.10;;;18.80;70.50;;;;;;5036174;28;20029;-59
2022/08/02 02:51:42;;;;;;;4.75;1.08;;;18.80;70.80;;;;;;5055111;28;20040;-59
2022/08/02 02:54:10;;;;;;;1.02;0.90;;;18.80;70.80;;;;;;5046744;28;20042;-58
2022/08/02 02:56:37;;;;;;;0.70;0.70;;;18.70;71.00;;;;;;5030641;28;20034;-59
2022/08/02 02:59:04;;;;;;;0.90;0.70;;;18.70;71.20;;;;;;5038568;28;20021;-59
2022/08/02 03:01:30;;;;;;;0.95;0.80;;;18.70;71.10;;;;;;5039415;28;20086;-58
2022/08/02 03:03:59;;;;;;;1.95;0.75;;;18.70;70.80;;;;;;5035267;28;20090;-58
2022/08/02 03:06:25;;;;;;;3.70;0.60;;;18.70;70.50;;;;;;5039409;28;20087;-58
2022/08/02 03:08:50;;;;;;;3.60;0.70;;;18.70;70.20;;;;;;5039349;28;20042;-58
2022/08/02 03:11:17;;;;;;;1.05;0.70;;;18.60;70.00;;;;;;5051140;28;20501;-58
2022/08/02 03:13:43;;;;;;;2.35;1.08;;;18.60;70.10;;;;;;5057907;28;20033;-59
2022/08/02 03:16:11;;;;;;;1.17;0.90;;;18.60;70.30;;;;;;5044213;28;20029;-59
2022/08/02 03:18:38;;;;;;;0.70;0.70;;;18.50;70.50;;;;;;5043220;28;20026;-58
2022/08/02 03:21:12;;;;;;;7.18;1.00;;;18.50;70.80;;;;;;5041392;28;20021;-58
2022/08/02 03:23:40;;;;;;;1.05;0.95;;;18.50;71.30;;;;;;5036736;28;20132;-59
2022/08/02 03:26:07;;;;;;;3.15;1.20;;;18.40;71.10;;;;;;5046686;28;20033;-57
2022/08/02 03:28:33;;;;;;;2.10;1.38;;;18.40;71.20;;;;;;5041114;28;20056;-58
2022/08/02 03:30:59;;;;;;;2.05;1.25;;;18.40;71.30;;;;;;5044336;28;20060;-59
2022/08/02 03:33:26;;;;;;;4.18;0.90;;;18.40;71.50;;;;;;5042627;28;20044;-60
2022/08/02 03:35:55;;;;;;;4.38;0.90;;;18.40;71.40;;;;;;5048250;28;20030;-58
2022/08/02 03:38:22;;;;;;;1.77;0.80;;;18.40;71.30;;;;;;5047939;28;20030;-57
2022/08/02 03:40:48;;;;;;;4.32;1.00;;;18.40;71.20;;;;;;5052177;28;20026;-59
2022/08/02 03:43:15;;;;;;;2.15;0.93;;;18.40;71.10;;;;;;5049006;28;20021;-58
2022/08/02 03:45:48;;;;;;;1.88;1.02;;;18.40;71.20;;;;;;5053993;28;20025;-57
2022/08/02 03:48:16;;;;;;;3.23;1.10;;;18.40;71.90;;;;;;5039755;28;20037;-58
2022/08/02 03:50:42;;;;;;;2.92;1.05;;;18.40;71.30;;;;;;5043608;28;20286;-58
2022/08/02 03:53:09;;;;;;;2.47;1.17;;;18.40;71.40;;;;;;5050660;28;20025;-59
2022/08/02 03:55:34;;;;;;;2.33;1.10;;;18.30;71.50;;;;;;5042896;28;20045;-58
2022/08/02 03:58:00;;;;;;;3.55;1.13;;;18.30;71.70;;;;;;5045167;28;20041;-58
2022/08/02 04:00:26;;;;;;;6.47;1.35;;;18.30;71.70;;;;;;5043855;28;20052;-59
2022/08/02 04:02:52;;;;;;;0.98;0.82;;;18.30;71.70;;;;;;5032666;28;20042;-59
2022/08/02 04:05:18;;;;;;;3.67;0.80;;;18.30;71.60;;;;;;5045096;28;20034;-59
2022/08/02 04:07:44;;;;;;;2.22;0.98;;;18.30;71.50;;;;;;5043274;28;20408;-60
2022/08/02 04:10:10;;;;;;;5.40;0.77;;;18.30;71.40;;;;;;5052294;28;20036;-59
2022/08/02 04:12:37;;;;;;;1.52;0.70;;;18.30;71.20;;;;;;5034702;28;20059;-58
2022/08/02 04:15:07;;;;;;;2.90;1.55;;;18.30;71.20;;;;;;5048226;28;20148;-58
2022/08/02 04:17:38;;;;;;;1.13;0.80;;;18.30;71.70;;;;;;5029201;28;20477;-60
2022/08/02 04:20:13;;;;;;;2.85;0.77;;;18.30;71.40;;;;;;5045747;28;20120;-59
2022/08/02 04:22:46;;;;;;;1.88;0.90;;;18.30;71.80;;;;;;5033196;28;20040;-60
2022/08/02 04:25:12;;;;;;;1.33;1.02;;;18.30;71.50;;;;;;5040187;28;20461;-59
2022/08/02 04:27:39;;;;;;;1.77;0.95;;;18.30;71.30;;;;;;5032508;28;20045;-58
2022/08/02 04:30:06;;;;;;;1.48;0.77;;;18.30;71.40;;;;;;5048940;28;20057;-59
2022/08/02 04:32:32;;;;;;;0.80;0.80;;;18.30;71.30;;;;;;5032036;28;20033;-59
2022/08/02 04:34:58;;;;;;;0.90;0.90;;;18.30;71.40;;;;;;5047775;28;20026;-58
2022/08/02 04:37:25;;;;;;;2.35;1.10;;;18.30;71.50;;;;;;5046411;28;20025;-58
2022/08/02 04:39:51;;;;;;;1.02;0.93;;;18.30;71.80;;;;;;5060260;28;20025;-58
2022/08/02 04:42:21;;;;;;;3.80;1.08;;;18.40;71.90;;;;;;5045930;28;20108;-58
2022/08/02 04:44:47;;;;;;;1.20;0.95;;;18.40;72.10;;;;;;5049331;28;20026;-59
2022/08/02 04:47:13;;;;;;;2.42;1.08;;;18.40;71.90;;;;;;5049903;28;20535;-60
2022/08/02 04:49:39;;;;;;;2.47;0.80;;;18.40;71.90;;;;;;5041188;28;20750;-60
2022/08/02 04:52:05;;;;;;;1.73;1.10;;;18.50;72.10;;;;;;5051485;28;20038;-58
2022/08/02 04:54:30;;;;;;;0.98;0.98;;;18.60;72.10;;;;;;5039388;28;20033;-58
2022/08/02 04:56:56;;;;;;;1.25;1.15;;;18.60;72.10;;;;;;5048679;28;20121;-60
2022/08/02 04:59:22;;;;;;;1.33;1.10;;;18.60;72.10;;;;;;5035227;28;20036;-59
2022/08/02 05:01:47;;;;;;;4.07;1.10;;;18.70;72.20;;;;;;5061975;28;20059;-58
2022/08/02 05:04:13;;;;;;;1.75;0.93;;;18.80;72.10;;;;;;5040453;28;20034;-59
2022/08/02 05:06:38;;;;;;;1.63;0.93;;;18.90;72.30;;;;;;5046615;28;20063;-58
2022/08/02 05:09:05;;;;;;;4.80;1.15;;;19.00;72.20;;;;;;5035993;28;20041;-58
2022/08/02 05:11:30;;;;;;;4.93;1.20;;;19.00;72.20;;;;;;5037530;28;20037;-59
2022/08/02 05:13:56;;;;;;;3.33;1.10;;;19.20;72.40;;;;;;5043389;28;20030;-60
2022/08/02 05:16:22;;;;;;;3.42;1.13;;;19.20;72.30;;;;;;5046457;28;20045;-59
2022/08/02 05:18:49;;;;;;;2.35;1.02;;;19.40;72.40;;;;;;5039804;28;20033;-60
2022/08/02 05:21:15;;;;;;;2.63;1.27;;;19.50;72.40;;;;;;5059555;28;20061;-58
2022/08/02 05:23:41;;;;;;;1.00;0.90;;;19.60;72.30;;;;;;5037010;28;20042;-59
2022/08/02 05:26:07;;;;;;;2.67;0.98;;;19.70;72.10;;;;;;5045063;28;20025;-58
2022/08/02 05:28:32;;;;;;;1.38;0.93;;;19.80;71.80;;;;;;5034428;28;20387;-59
2022/08/02 05:30:58;;;;;;;1.27;1.10;;;19.90;71.50;;;;;;5053960;28;20116;-59
2022/08/02 05:33:24;;;;;;;1.77;0.90;;;20.00;71.40;;;;;;5055864;28;20419;-58
2022/08/02 05:35:49;;;;;;;1.73;0.90;;;20.10;71.20;;;;;;5038510;28;20100;-58
2022/08/02 05:38:15;;;;;;;3.90;1.02;;;20.20;71.00;;;;;;5038721;28;20041;-58
2022/08/02 05:40:40;;;;;;;4.97;1.10;;;20.30;70.90;;;;;;5039623;28;20029;-59
2022/08/02 05:43:14;;;;;;;2.35;1.15;;;20.40;70.90;;;;;;5044203;28;20092;-59
2022/08/02 05:45:40;;;;;;;1.88;1.30;;;20.50;71.10;;;;;;5031812;28;20437;-60
2022/08/02 05:48:06;;;;;;;5.72;1.35;;;20.60;70.80;;;;;;5039748;28;20034;-60
2022/08/02 05:50:38;;;;;;;2.70;1.05;;;20.70;70.60;;;;;;5047332;28;20095;-59
2022/08/02 05:53:12;;;;;;;1.50;1.20;;;20.80;70.20;;;;;;5036327;28;20123;-60
2022/08/02 05:55:52;;;;;;;5.13;1.20;;;20.90;70.10;;;;;;5024212;28;20034;-60
2022/08/02 05:58:29;;;;;;;3.20;1.15;;;21.00;70.00;;;;;;5026269;28;20296;-58
2022/08/02 06:00:58;;;;;;;1.10;1.00;;;21.10;70.30;;;;;;5029121;28;20038;-59
2022/08/02 06:03:31;;;;;;;1.92;1.02;;;21.20;70.00;;;;;;5026833;28;20093;-58
2022/08/02 06:06:11;;;;;;;3.38;1.27;;;21.30;69.60;;;;;;5023985;28;20042;-59
2022/08/02 06:08:41;;;;;;;4.10;1.35;;;21.50;69.50;;;;;;5028721;28;20075;-58
2022/08/02 06:11:12;;;;;;;5.93;1.70;;;21.60;69.10;;;;;;5024423;28;20049;-59
2022/08/02 06:13:41;;;;;;;2.63;1.38;;;21.70;69.10;;;;;;5031347;28;20045;-58
2022/08/02 06:16:07;;;;;;;3.92;1.40;;;21.80;68.80;;;;;;5038249;28;20022;-60
2022/08/02 06:18:34;;;;;;;2.70;1.20;;;21.90;68.80;;;;;;5061368;28;20028;-59
2022/08/02 06:21:02;;;;;;;6.55;1.50;;;22.00;68.80;;;;;;5037399;28;20081;-58
2022/08/02 06:23:29;;;;;;;1.75;1.25;;;22.20;68.50;;;;;;5040399;28;20679;-58
2022/08/02 06:25:57;;;;;;;1.92;1.23;;;22.20;68.30;;;;;;5040522;28;20017;-58
2022/08/02 06:28:24;;;;;;;3.95;1.35;;;22.30;68.30;;;;;;5042219;28;20080;-60
2022/08/02 06:30:50;;;;;;;3.80;1.13;;;22.40;67.90;;;;;;5028922;28;20037;-60
2022/08/02 06:33:16;;;;;;;4.55;1.02;;;22.60;67.80;;;;;;5036978;28;20044;-58
2022/08/02 06:35:44;;;;;;;4.75;1.33;;;22.70;67.60;;;;;;5038227;28;20110;-58
2022/08/02 06:38:20;;;;;;;10.63;1.25;;;22.80;67.20;;;;;;5030600;28;20036;-58
2022/08/02 06:40:56;;;;;;;5.85;1.35;;;23.00;66.60;;;;;;5036217;28;20029;-59
2022/08/02 06:43:52;;;;;;;6.38;1.20;;;23.10;66.30;;;;;;5029408;28;20026;-59
2022/08/02 06:46:18;;;;;;;3.38;0.90;;;23.20;65.70;;;;;;5036171;28;20022;-59
2022/08/02 06:48:44;;;;;;;2.33;1.13;;;23.40;66.00;;;;;;5033485;28;20074;-59
2022/08/02 06:51:11;;;;;;;2.97;1.15;;;23.50;65.70;;;;;;5041811;28;20041;-59
2022/08/02 06:53:37;;;;;;;2.20;1.20;;;23.50;65.50;;;;;;5038324;28;20046;-60
2022/08/02 06:56:03;;;;;;;3.50;1.27;;;23.70;65.40;;;;;;5031700;28;20029;-60
2022/08/02 06:58:29;;;;;;;1.67;0.90;;;23.80;65.40;;;;;;5029592;28;20034;-59
2022/08/02 07:00:55;;;;;;;2.67;1.05;;;23.90;65.10;;;;;;5046252;28;20125;-59
2022/08/02 07:03:21;;;;;;;2.97;1.20;;;24.00;65.00;;;;;;5037099;28;20029;-59
2022/08/02 07:05:47;;;;;;;3.53;1.30;;;24.10;65.40;;;;;;5041833;28;20029;-58
2022/08/02 07:08:17;;;;;;;8.40;1.15;;;24.20;64.80;;;;;;5027444;28;20056;-58
2022/08/02 07:10:43;;;;;;;2.33;1.02;;;24.30;65.20;;;;;;5044373;28;20088;-59
2022/08/02 07:13:09;;;;;;;2.00;1.40;;;24.50;65.50;;;;;;5037417;28;20048;-59
2022/08/02 07:15:36;;;;;;;4.25;1.48;;;24.60;65.40;;;;;;5040169;28;20061;-60
2022/08/02 07:18:02;;;;;;;3.60;1.13;;;24.70;65.80;;;;;;5042460;28;20029;-60
2022/08/02 07:20:28;;;;;;;3.17;1.27;;;24.80;64.50;;;;;;5040025;28;20041;-59
2022/08/02 07:22:53;;;;;;;3.97;1.83;;;24.90;64.30;;;;;;5036876;28;20037;-60
2022/08/02 07:25:19;;;;;;;3.05;1.20;;;25.00;64.20;;;;;;5042158;28;20117;-59
2022/08/02 07:27:45;;;;;;;2.70;1.35;;;25.00;63.80;;;;;;5032843;28;20034;-59
2022/08/02 07:30:11;;;;;;;1.23;0.90;;;25.20;63.80;;;;;;5036419;28;20461;-58
2022/08/02 07:32:37;;;;;;;1.80;1.05;;;25.30;63.70;;;;;;5041626;28;20056;-60
2022/08/02 07:35:03;;;;;;;2.88;1.25;;;25.30;63.50;;;;;;5049867;28;20037;-58
2022/08/02 07:37:32;;;;;;;3.25;1.30;;;25.40;63.50;;;;;;5048798;28;20496;-59
2022/08/02 07:39:58;;;;;;;2.17;1.30;;;25.60;62.80;;;;;;5032730;28;20116;-60
2022/08/02 07:42:23;;;;;;;1.83;0.88;;;25.70;62.70;;;;;;5063564;28;20053;-59
2022/08/02 07:44:50;;;;;;;2.42;1.30;;;25.80;62.40;;;;;;5039171;28;20037;-60
2022/08/02 07:47:16;;;;;;;2.90;1.20;;;25.90;61.70;;;;;;5037225;28;20029;-58
2022/08/02 07:49:42;;;;;;;1.92;1.15;;;25.90;61.30;;;;;;5034422;28;20034;-58
2022/08/02 07:52:08;;;;;;;2.13;1.10;;;26.00;61.10;;;;;;5028510;28;21137;-58
2022/08/02 07:54:33;;;;;;;4.60;1.48;;;26.00;60.50;;;;;;5033420;28;20033;-59
2022/08/02 07:56:59;;;;;;;3.63;1.45;;;26.10;60.50;;;;;;5034653;28;20049;-60
2022/08/02 07:59:26;;;;;;;4.55;1.20;;;26.10;60.70;;;;;;5046572;28;20083;-60
2022/08/02 08:01:52;;;;;;;3.47;1.40;;;26.10;60.70;;;;;;5059117;28;20022;-59
2022/08/02 08:04:18;;;;;;;2.08;0.95;;;26.10;59.70;;;;;;5044053;28;20033;-59
2022/08/02 08:06:48;;;;;;;1.52;1.08;;;26.20;59.10;;;;;;5062448;28;20025;-59
2022/08/02 08:09:14;;;;;;;1.20;0.90;;;26.20;58.50;;;;;;5057909;28;20033;-59
2022/08/02 08:11:39;;;;;;;3.75;1.40;;;26.20;58.00;;;;;;5053770;28;20082;-59
2022/08/02 08:14:05;;;;;;;4.20;1.10;;;26.30;57.20;;;;;;5039652;28;20030;-60
2022/08/02 08:16:31;;;;;;;3.13;1.05;;;26.30;57.20;;;;;;5024995;28;20044;-58
2022/08/02 08:18:57;;;;;;;2.10;1.10;;;26.40;57.50;;;;;;5063249;28;20017;-59
2022/08/02 08:21:23;;;;;;;1.92;1.05;;;26.40;58.00;;;;;;5042553;28;20017;-60
2022/08/02 08:23:49;;;;;;;1.40;0.82;;;26.40;57.20;;;;;;5040892;28;20100;-60
2022/08/02 08:26:15;;;;;;;4.70;0.80;;;26.40;56.70;;;;;;5024488;28;20089;-60
2022/08/02 08:28:41;;;;;;;1.10;1.00;;;26.50;56.70;;;;;;5037259;28;20044;-60
2022/08/02 08:31:06;;;;;;;3.42;1.30;;;26.50;56.40;;;;;;5058381;28;20029;-60
2022/08/02 08:33:33;;;;;;;0.95;0.80;;;26.60;56.60;;;;;;5044637;28;20052;-60
2022/08/02 08:35:59;;;;;;;1.88;1.20;;;26.70;56.60;;;;;;5061380;28;20033;-60
2022/08/02 08:38:25;;;;;;;2.60;1.00;;;26.80;56.30;;;;;;5042708;28;20033;-60
2022/08/02 08:40:51;;;;;;;1.10;1.00;;;26.90;56.50;;;;;;5062638;28;20047;-61
2022/08/02 08:43:16;;;;;;;2.67;1.45;;;27.00;56.50;;;;;;5038966;28;20029;-60
2022/08/02 08:45:43;;;;;;;1.58;0.93;;;27.10;56.40;;;;;;5062748;28;20037;-60
2022/08/02 08:48:17;;;;;;;2.05;1.00;;;27.20;56.20;;;;;;5050127;28;20103;-61
2022/08/02 08:50:52;;;;;;;1.45;0.85;;;27.30;55.60;;;;;;5023968;28;20030;-61
2022/08/02 08:53:20;;;;;;;1.17;0.77;;;27.50;55.50;;;;;;5036092;28;20037;-61
2022/08/02 08:55:47;;;;;;;2.35;0.90;;;27.60;55.90;;;;;;5062986;28;20096;-60
2022/08/02 08:58:13;;;;;;;1.50;0.90;;;27.60;53.60;;;;;;5042458;28;20119;-59
2022/08/02 09:00:42;;;;;;;1.73;1.00;;;27.70;53.70;;;;;;5060898;28;20036;-60
2022/08/02 09:03:09;;;;;;;5.88;0.82;;;27.70;53.40;;;;;;5043839;28;20038;-60
2022/08/02 09:05:36;;;;;;;1.60;0.95;;;27.80;53.90;;;;;;5062875;28;20033;-61
2022/08/02 09:08:02;;;;;;;3.33;0.70;;;27.80;53.30;;;;;;5035362;28;20037;-61
2022/08/02 09:10:46;;;;;;;3.50;0.90;;;27.90;53.20;;;;;;5046670;28;20067;-61
2022/08/02 09:13:16;;;;;;;1.10;0.90;;;27.90;51.20;;;;;;5025713;28;20036;-61
2022/08/02 09:15:44;;;;;;;3.60;0.88;;;28.00;53.40;;;;;;5041809;28;20028;-61
2022/08/02 09:18:10;;;;;;;0.80;0.60;;;28.10;53.00;;;;;;5049016;28;20029;-60
2022/08/02 09:20:58;;;;;;;2.05;0.88;;;28.20;52.60;;;;;;5062208;28;20037;-61
2022/08/02 09:23:27;;;;;;;1.23;0.80;;;28.30;51.10;;;;;;5049383;28;20040;-60
2022/08/02 09:26:01;;;;;;;1.63;0.80;;;28.40;51.40;;;;;;5041701;28;20092;-62
2022/08/02 09:28:29;;;;;;;1.08;0.77;;;28.50;50.40;;;;;;5043079;28;20061;-60
2022/08/02 09:31:24;;;;;;;1.23;0.90;;;28.50;51.50;;;;;;5060353;28;20029;-62
2022/08/02 09:33:55;;;;;;;2.10;0.98;;;28.50;50.90;;;;;;5048407;28;20414;-62
2022/08/02 09:36:22;;;;;;;5.78;1.10;;;28.50;50.10;;;;;;5027687;28;20029;-60
2022/08/02 09:39:02;;;;;;;3.30;0.80;;;28.50;50.00;;;;;;5043952;28;20038;-61
2022/08/02 09:41:33;;;;;;;2.15;1.00;;;28.50;49.00;;;;;;5024176;28;20109;-61
2022/08/02 09:44:02;;;;;;;1.27;0.63;;;28.50;49.80;;;;;;5041772;28;20029;-61
2022/08/02 09:46:31;;;;;;;1.30;0.93;;;28.50;50.40;;;;;;5056285;28;20037;-62
2022/08/02 09:48:58;;;;;;;2.17;0.80;;;28.50;50.30;;;;;;5042953;28;20046;-61
2022/08/02 09:51:29;;;;;;;2.85;0.65;;;28.60;48.90;;;;;;5053160;28;20033;-60
2022/08/02 09:54:00;;;;;;;0.77;0.70;;;28.60;48.20;;;;;;5043791;28;20037;-62
2022/08/02 09:56:28;;;;;;;1.30;0.73;;;28.70;47.90;;;;;;5023087;28;20037;-61
2022/08/02 09:58:54;;;;;;;0.98;0.63;;;28.70;48.70;;;;;;5046426;28;20394;-61
2022/08/02 10:01:33;;;;;;;1.55;0.70;;;28.80;48.00;;;;;;5057587;28;20088;-61
2022/08/02 10:04:04;;;;;;;1.73;0.73;;;28.90;48.80;;;;;;5042549;28;20029;-61
2022/08/02 10:06:30;;;;;;;0.70;0.60;;;29.00;48.40;;;;;;5022453;28;20086;-60
2022/08/02 10:08:56;;;;;;;1.33;0.70;;;29.20;48.60;;;;;;5042842;28;20051;-60
2022/08/02 10:11:24;;;;;;;2.30;0.40;;;29.40;48.80;;;;;;5058017;28;20061;-61
2022/08/02 10:13:50;;;;;;;3.38;0.70;;;29.60;48.90;;;;;;5033387;28;20389;-61
2022/08/02 10:16:20;;;;;;;1.30;0.80;;;29.80;48.50;;;;;;5058611;28;20029;-61
2022/08/02 10:18:46;;;;;;;1.50;0.73;;;30.00;48.10;;;;;;5036474;28;20034;-60
2022/08/02 10:21:51;;;;;;;0.80;0.63;;;30.10;48.00;;;;;;5060127;28;20032;-61
2022/08/02 10:24:19;;;;;;;;;;;30.10;45.80;;;;;;5044491;28;20120;-61
2022/08/02 10:26:46;;;;;;;0.70;0.68;;;30.20;48.10;;;;;;5061570;28;19908;-60
2022/08/02 10:29:19;;;;;;;2.00;0.63;;;30.30;47.40;;;;;;5052288;28;20056;-60
2022/08/02 10:31:53;;;;;;;3.50;0.60;;;30.40;46.10;;;;;;5037235;28;20034;-60
2022/08/02 10:34:23;;;;;;;0.70;0.50;;;30.40;46.10;;;;;;5039805;28;20052;-60
2022/08/02 10:36:50;;;;;;;0.68;0.60;;;30.60;46.50;;;;;;5061383;28;20062;-60
2022/08/02 10:39:16;;;;;;;1.10;0.80;;;30.70;46.40;;;;;;5040877;28;20033;-62
2022/08/02 10:41:44;;;;;;;0.60;0.60;;;30.90;45.90;;;;;;5052023;28;20021;-61
2022/08/02 10:44:28;;;;;;;1.15;0.80;;;30.90;44.60;;;;;;5050460;28;20017;-60
2022/08/02 10:47:14;;;;;;;0.85;0.60;;;31.10;43.90;;;;;;5022148;28;20053;-61
2022/08/02 10:49:57;;;;;;;2.90;0.80;;;31.10;43.90;;;;;;5024058;28;20469;-61
2022/08/02 10:52:27;;;;;;;3.07;0.60;;;31.10;42.90;;;;;;5034376;28;20071;-62
2022/08/02 10:55:09;;;;;;;0.90;0.60;;;30.90;42.90;;;;;;5061496;28;20036;-62
2022/08/02 10:57:35;;;;;;;4.35;0.50;;;30.70;42.80;;;;;;5049844;28;20067;-62
2022/08/02 11:00:25;;;;;;;1.25;0.60;;;30.70;43.50;;;;;;5061402;28;20017;-61
2022/08/02 11:02:52;;;;;;;1.15;0.70;;;30.60;43.70;;;;;;5027431;28;20124;-62
2022/08/02 11:05:35;;;;;;;0.88;0.80;;;30.60;44.40;;;;;;5043336;28;20044;-61
2022/08/02 11:08:19;;;;;;;1.90;0.88;;;30.70;41.80;;;;;;5047789;28;20438;-60
2022/08/02 11:10:44;;;;;;;0.75;0.57;;;30.90;43.60;;;;;;5025392;28;20022;-60
2022/08/02 11:13:15;;;;;;;1.50;0.60;;;31.00;44.30;;;;;;5040829;28;20041;-61
2022/08/02 11:15:56;;;;;;;2.08;0.63;;;31.10;43.90;;;;;;5047972;28;20369;-62
2022/08/02 11:18:42;;;;;;;0.70;0.52;;;31.30;44.00;;;;;;5053401;28;20523;-61
2022/08/02 11:21:24;;;;;;;0.85;0.57;;;31.40;44.00;;;;;;5059537;28;20029;-61
2022/08/02 11:23:51;;;;;;;1.10;0.50;;;31.60;44.10;;;;;;5049635;28;20037;-61
2022/08/02 11:26:32;;;;;;;1.15;0.82;;;31.80;44.20;;;;;;5025262;28;20033;-60
2022/08/02 11:29:01;;;;;;;1.42;0.60;;;31.90;42.70;;;;;;5054146;28;20048;-60
2022/08/02 11:31:28;;;;;;;0.77;0.77;;;32.10;44.20;;;;;;5065024;28;20076;-61
2022/08/02 11:33:54;;;;;;;0.52;0.50;;;32.10;43.80;;;;;;5054515;28;20052;-62
2022/08/02 11:36:19;;;;;;;1.00;0.70;;;32.20;42.90;;;;;;5064896;28;20117;-60
2022/08/02 11:38:45;;;;;;;0.82;0.63;;;32.30;42.60;;;;;;5044114;28;20029;-62
2022/08/02 11:41:23;;;;;;;1.05;0.77;;;32.40;41.80;;;;;;5064165;28;20024;-62
2022/08/02 11:43:55;;;;;;;0.80;0.70;;;32.40;39.30;;;;;;5030556;28;20409;-60
2022/08/02 11:46:21;;;;;;;7.10;1.48;;;32.30;39.70;;;;;;5043751;28;20045;-61
2022/08/02 11:48:47;;;;;;;1.27;0.70;;;32.10;40.10;;;;;;5051419;28;20044;-62
2022/08/02 11:51:15;;;;;;;1.38;0.60;;;31.90;40.10;;;;;;5064164;28;20029;-60
2022/08/02 11:53:57;;;;;;;0.93;0.77;;;31.60;40.10;;;;;;5043656;28;20025;-61
2022/08/02 11:56:28;;;;;;;5.25;1.10;;;31.40;40.10;;;;;;5032041;28;20045;-61
2022/08/02 11:59:10;;;;;;;0.70;0.45;;;31.20;40.60;;;;;;5024857;28;20034;-60
2022/08/02 12:01:38;;;;;;;1.20;0.73;;;31.10;40.80;;;;;;5048373;28;20073;-60
2022/08/02 12:04:06;;;;;;;3.10;0.80;;;31.00;41.20;;;;;;5048328;28;20029;-60
2022/08/02 12:06:33;;;;;;;0.68;0.68;;;30.90;41.40;;;;;;5048726;28;20056;-60
2022/08/02 12:09:11;;;;;;;1.30;0.70;;;30.90;41.80;;;;;;5042940;28;20054;-61
2022/08/02 12:11:37;;;;;;;1.27;0.70;;;30.80;41.20;;;;;;5041255;28;20049;-60
2022/08/02 12:14:04;;;;;;;0.70;0.60;;;30.70;42.10;;;;;;5036483;28;20481;-62
2022/08/02 12:19:25;;;;;;;0.88;0.70;;;30.60;43.30;;;;;;5040046;28;20056;-61
2022/08/02 12:22:11;;;;;;;0.95;0.60;;;30.80;43.50;;;;;;5064406;28;20032;-59
2022/08/02 12:24:37;;;;;;;1.25;0.70;;;30.90;43.30;;;;;;5048941;28;20068;-61
2022/08/02 12:27:03;;;;;;;0.80;0.60;;;31.10;43.40;;;;;;5060258;28;20031;-61
2022/08/02 12:29:37;;;;;;;2.60;0.77;;;31.20;43.60;;;;;;5046393;28;20045;-60
2022/08/02 12:32:04;;;;;;;0.70;0.55;;;31.40;43.10;;;;;;5029451;28;20033;-61
2022/08/02 12:34:32;;;;;;;0.75;0.70;;;31.60;42.00;;;;;;5044831;28;20033;-60
2022/08/02 12:37:07;;;;;;;1.70;0.70;;;31.80;42.10;;;;;;5058242;28;20048;-61
2022/08/02 12:39:40;;;;;;;2.65;0.60;;;31.90;41.70;;;;;;5044640;28;20081;-61
2022/08/02 12:42:08;;;;;;;0.95;0.70;;;32.10;41.50;;;;;;5045145;28;20065;-62
2022/08/02 12:44:48;;;;;;;1.50;0.73;;;32.30;41.60;;;;;;5043339;28;20060;-61
2022/08/02 12:47:14;;;;;;;0.70;0.60;;;32.50;41.40;;;;;;5024632;28;20474;-61
2022/08/02 12:49:40;;;;;;;4.45;0.80;;;32.60;41.80;;;;;;5043231;28;20076;-61
2022/08/02 12:52:22;;;;;;;0.57;0.50;;;32.80;41.40;;;;;;5061581;28;20078;-62
2022/08/02 12:54:48;;;;;;;0.70;0.70;;;32.90;40.00;;;;;;5042914;28;20025;-61
2022/08/02 12:57:17;;;;;;;1.58;0.65;;;33.10;40.20;;;;;;5058978;28;20025;-61
2022/08/02 12:59:49;;;;;;;1.38;0.60;;;33.10;40.30;;;;;;5024933;28;20496;-61